Time,TemperatureF,DewpointF,PressureIn,WindDirection,WindDirectionDegrees,WindSpeedMPH,WindSpeedGustMPH,Humidity,HourlyPrecipIn,Conditions,Clouds,dailyrainin,SolarRadiationWatts/m^2,SoftwareType,DateUTC
2013-01-16 00:13:00,26.3,-1.0,30.45,NNW,343,0.0,0.0,30,0.00,,,0.00,0,weatherlink.com 1.10,2013-01-16 07:13:00,
2013-01-16 00:27:00,25.8,-1.0,30.45,NNW,343,0.0,0.0,31,0.00,,,0.00,0,weatherlink.com 1.10,2013-01-16 07:27:00,
2013-01-16 00:42:00,25.8,0.0,30.46,NNW,342,0.0,0.0,32,0.00,,,0.00,0,weatherlink.com 1.10,2013-01-16 07:42:00,
2013-01-16 00:57:00,26.1,0.0,30.46,NNW,343,0.0,0.0,32,0.00,,,0.00,0,weatherlink.com 1.10,2013-01-16 07:57:00,
2013-01-16 01:12:00,25.9,0.0,30.46,NNW,342,0.0,0.0,33,0.00,,,0.00,0,weatherlink.com 1.10,2013-01-16 08:12:00,
2013-01-16 01:27:00,25.6,1.0,30.47,NNW,343,0.0,0.0,35,0.00,,,0.00,0,weatherlink.com 1.10,2013-01-16 08:27:00,
2013-01-16 01:42:00,25.4,1.0,30.48,NNW,343,0.0,0.0,35,0.00,,,0.00,0,weatherlink.com 1.10,2013-01-16 08:42:00,
2013-01-16 01:58:00,25.2,1.0,30.48,NNW,342,0.0,0.0,35,0.00,,,0.00,0,weatherlink.com 1.10,2013-01-16 08:58:00,
2013-01-16 02:13:00,25.3,0.0,30.47,NNW,342,0.0,0.0,34,0.00,,,0.00,0,weatherlink.com 1.10,2013-01-16 09:13:00,
2013-01-16 02:43:00,24.2,1.0,30.48,NNW,343,0.0,0.0,36,0.00,,,0.00,0,weatherlink.com 1.10,2013-01-16 09:43:00,
2013-01-16 02:58:00,23.8,0.0,30.47,NNW,343,0.0,0.0,36,0.00,,,0.00,0,weatherlink.com 1.10,2013-01-16 09:58:00,
2013-01-16 03:13:00,23.8,0.0,30.47,NNW,342,0.0,0.0,36,0.00,,,0.00,0,weatherlink.com 1.10,2013-01-16 10:13:00,
2013-01-16 03:28:00,23.6,1.0,30.47,NNW,343,0.0,0.0,37,0.00,,,0.00,0,weatherlink.com 1.10,2013-01-16 10:28:00,
2013-01-16 03:43:00,23.3,0.0,30.47,NNW,343,0.0,0.0,36,0.00,,,0.00,0,weatherlink.com 1.10,2013-01-16 10:43:00,
2013-01-16 03:58:00,23.3,0.0,30.47,NNW,343,0.0,0.0,37,0.00,,,0.00,0,weatherlink.com 1.10,2013-01-16 10:58:00,
2013-01-16 04:13:00,23.4,0.0,30.47,NNW,342,0.0,0.0,36,0.00,,,0.00,0,weatherlink.com 1.10,2013-01-16 11:13:00,
2013-01-16 04:28:00,22.9,0.0,30.46,NNW,342,0.0,0.0,37,0.00,,,0.00,0,weatherlink.com 1.10,2013-01-16 11:28:00,
2013-01-16 04:43:00,22.5,0.0,30.46,NNW,343,0.0,0.0,37,0.00,,,0.00,0,weatherlink.com 1.10,2013-01-16 11:43:00,
2013-01-16 04:58:00,22.3,0.0,30.46,NNW,343,0.0,0.0,38,0.00,,,0.00,0,weatherlink.com 1.10,2013-01-16 11:58:00,
2013-01-16 05:13:00,22.2,1.0,30.47,NNW,343,0.0,0.0,40,0.00,,,0.00,0,weatherlink.com 1.10,2013-01-16 12:13:00,
2013-01-16 05:29:00,22.4,1.0,30.47,NNW,342,0.0,0.0,40,0.00,,,0.00,0,weatherlink.com 1.10,2013-01-16 12:29:00,
2013-01-16 05:44:00,22.1,2.0,30.48,NNW,343,0.0,0.0,41,0.00,,,0.00,0,weatherlink.com 1.10,2013-01-16 12:44:00,
2013-01-16 05:59:00,22.0,2.0,30.48,NNW,343,0.0,0.0,41,0.00,,,0.00,0,weatherlink.com 1.10,2013-01-16 12:59:00,
2013-01-16 06:14:00,21.9,2.0,30.48,NNW,342,0.0,0.0,42,0.00,,,0.00,0,weatherlink.com 1.10,2013-01-16 13:14:00,
2013-01-16 06:29:00,21.9,2.0,30.48,NNW,343,0.0,0.0,42,0.00,,,0.00,0,weatherlink.com 1.10,2013-01-16 13:29:00,
2013-01-16 06:44:00,22.2,2.0,30.48,NNW,343,0.0,0.0,41,0.00,,,0.00,0,weatherlink.com 1.10,2013-01-16 13:44:00,
2013-01-16 06:59:00,22.2,2.0,30.49,NNW,343,0.0,0.0,41,0.00,,,0.00,0,weatherlink.com 1.10,2013-01-16 13:59:00,
2013-01-16 07:14:00,22.2,2.0,30.49,NNW,343,0.0,0.0,42,0.00,,,0.00,9,weatherlink.com 1.10,2013-01-16 14:14:00,
2013-01-16 07:29:00,23.5,3.0,30.50,NNW,343,0.0,0.0,42,0.00,,,0.00,16,weatherlink.com 1.10,2013-01-16 14:29:00,
2013-01-16 07:44:00,24.3,3.0,30.50,NNW,342,0.0,0.0,40,0.00,,,0.00,47,weatherlink.com 1.10,2013-01-16 14:44:00,
2013-01-16 07:59:00,26.9,4.0,30.51,NNW,343,0.0,0.0,37,0.00,,,0.00,95,weatherlink.com 1.10,2013-01-16 14:59:00,
2013-01-16 08:14:00,29.0,4.0,30.52,NNW,343,0.0,0.0,34,0.00,,,0.00,146,weatherlink.com 1.10,2013-01-16 15:14:00,
2013-01-16 08:29:00,28.9,4.0,30.53,NNW,342,0.0,2.0,35,0.00,,,0.00,204,weatherlink.com 1.10,2013-01-16 15:29:00,
2013-01-16 08:44:00,30.5,4.0,30.53,NNW,342,1.0,2.0,33,0.00,,,0.00,258,weatherlink.com 1.10,2013-01-16 15:44:00,
2013-01-16 09:00:00,30.5,4.0,30.54,NNW,343,0.0,2.0,33,0.00,,,0.00,301,weatherlink.com 1.10,2013-01-16 16:00:00,
2013-01-16 09:15:00,32.1,4.0,30.55,NNW,343,0.0,1.0,31,0.00,,,0.00,343,weatherlink.com 1.10,2013-01-16 16:15:00,
2013-01-16 09:30:00,33.6,5.0,30.55,NNW,343,0.0,2.0,30,0.00,,,0.00,383,weatherlink.com 1.10,2013-01-16 16:30:00,
2013-01-16 09:45:00,34.6,5.0,30.55,NNW,342,0.0,2.0,29,0.00,,,0.00,418,weatherlink.com 1.10,2013-01-16 16:45:00,
2013-01-16 10:00:00,36.4,5.0,30.55,NNW,342,0.0,2.0,27,0.00,,,0.00,454,weatherlink.com 1.10,2013-01-16 17:00:00,
2013-01-16 10:15:00,37.4,5.0,30.55,NNW,342,0.0,2.0,26,0.00,,,0.00,485,weatherlink.com 1.10,2013-01-16 17:15:00,
2013-01-16 10:30:00,37.6,5.0,30.54,NNW,342,0.0,2.0,26,0.00,,,0.00,513,weatherlink.com 1.10,2013-01-16 17:30:00,
2013-01-16 10:45:00,39.4,6.0,30.54,NNW,342,1.0,3.0,25,0.00,,,0.00,538,weatherlink.com 1.10,2013-01-16 17:45:00,
2013-01-16 11:00:00,39.2,6.0,30.53,NNW,342,0.0,4.0,25,0.00,,,0.00,559,weatherlink.com 1.10,2013-01-16 18:00:00,
2013-01-16 11:15:00,40.0,6.0,30.52,NNW,342,0.0,3.0,24,0.00,,,0.00,575,weatherlink.com 1.10,2013-01-16 18:15:00,
2013-01-16 11:30:00,40.4,6.0,30.51,NNW,342,0.0,2.0,24,0.00,,,0.00,591,weatherlink.com 1.10,2013-01-16 18:30:00,
2013-01-16 11:45:00,40.2,6.0,30.50,NNW,339,2.0,4.0,24,0.00,,,0.00,598,weatherlink.com 1.10,2013-01-16 18:45:00,
2013-01-16 12:01:00,40.4,6.0,30.50,NNW,337,0.0,4.0,24,0.00,,,0.00,599,weatherlink.com 1.10,2013-01-16 19:01:00,
2013-01-16 12:16:00,40.0,6.0,30.49,WNW,303,0.0,5.0,24,0.00,,,0.00,605,weatherlink.com 1.10,2013-01-16 19:16:00,
2013-01-16 12:31:00,40.3,6.0,30.48,WNW,300,0.0,3.0,24,0.00,,,0.00,603,weatherlink.com 1.10,2013-01-16 19:31:00,
2013-01-16 12:46:00,41.8,7.0,30.47,WNW,295,0.0,3.0,24,0.00,,,0.00,598,weatherlink.com 1.10,2013-01-16 19:46:00,
2013-01-16 13:01:00,42.3,8.0,30.47,WNW,290,1.0,3.0,24,0.00,,,0.00,585,weatherlink.com 1.10,2013-01-16 20:01:00,
2013-01-16 13:16:00,43.9,8.0,30.46,WNW,289,2.0,3.0,23,0.00,,,0.00,575,weatherlink.com 1.10,2013-01-16 20:16:00,
2013-01-16 13:31:00,43.4,8.0,30.45,West,281,2.0,6.0,23,0.00,,,0.00,557,weatherlink.com 1.10,2013-01-16 20:31:00,
2013-01-16 13:46:00,44.4,9.0,30.45,West,260,1.0,11.0,23,0.00,,,0.00,538,weatherlink.com 1.10,2013-01-16 20:46:00,
2013-01-16 14:01:00,44.4,9.0,30.44,WSW,253,2.0,7.0,23,0.00,,,0.00,512,weatherlink.com 1.10,2013-01-16 21:01:00,
2013-01-16 14:16:00,45.1,9.0,30.44,WSW,252,1.0,5.0,23,0.00,,,0.00,483,weatherlink.com 1.10,2013-01-16 21:16:00,
2013-01-16 14:31:00,45.3,8.0,30.43,WSW,248,0.0,5.0,22,0.00,,,0.00,455,weatherlink.com 1.10,2013-01-16 21:31:00,
2013-01-16 14:46:00,45.7,9.0,30.43,WSW,238,2.0,7.0,22,0.00,,,0.00,424,weatherlink.com 1.10,2013-01-16 21:46:00,
2013-01-16 15:01:00,45.0,9.0,30.43,SW,236,1.0,7.0,23,0.00,,,0.00,30,weatherlink.com 1.10,2013-01-16 22:01:00,
2013-01-16 15:16:00,45.4,9.0,30.43,SW,226,1.0,8.0,23,0.00,,,0.00,304,weatherlink.com 1.10,2013-01-16 22:16:00,
2013-01-16 15:31:00,45.8,10.0,30.43,SW,226,1.0,4.0,23,0.00,,,0.00,306,weatherlink.com 1.10,2013-01-16 22:31:00,
2013-01-16 15:47:00,46.6,9.0,30.43,SW,220,1.0,8.0,22,0.00,,,0.00,257,weatherlink.com 1.10,2013-01-16 22:47:00,
2013-01-16 16:02:00,46.8,10.0,30.43,SW,219,2.0,6.0,22,0.00,,,0.00,206,weatherlink.com 1.10,2013-01-16 23:02:00,
2013-01-16 16:17:00,46.6,9.0,30.43,SW,221,2.0,4.0,22,0.00,,,0.00,151,weatherlink.com 1.10,2013-01-16 23:17:00,
2013-01-16 16:32:00,46.8,10.0,30.44,SW,221,0.0,4.0,22,0.00,,,0.00,98,weatherlink.com 1.10,2013-01-16 23:32:00,
2013-01-16 16:47:00,46.1,10.0,30.44,SW,221,0.0,4.0,23,0.00,,,0.00,54,weatherlink.com 1.10,2013-01-16 23:47:00,
2013-01-16 17:02:00,45.1,9.0,30.44,SW,221,0.0,2.0,23,0.00,,,0.00,14,weatherlink.com 1.10,2013-01-17 00:02:00,
2013-01-16 17:32:00,44.1,8.0,30.45,SW,221,1.0,5.0,23,0.00,,,0.00,0,weatherlink.com 1.10,2013-01-17 00:32:00,
2013-01-16 17:47:00,43.6,8.0,30.45,SW,221,0.0,0.0,23,0.00,,,0.00,0,weatherlink.com 1.10,2013-01-17 00:47:00,
2013-01-16 18:02:00,43.1,8.0,30.46,SW,221,0.0,0.0,24,0.00,,,0.00,0,weatherlink.com 1.10,2013-01-17 01:02:00,
2013-01-16 18:17:00,42.4,8.0,30.46,SW,221,0.0,0.0,24,0.00,,,0.00,0,weatherlink.com 1.10,2013-01-17 01:17:00,
2013-01-16 18:32:00,41.8,8.0,30.46,SW,221,0.0,0.0,25,0.00,,,0.00,0,weatherlink.com 1.10,2013-01-17 01:32:00,
2013-01-16 19:03:00,41.1,8.0,30.46,SW,221,0.0,0.0,26,0.00,,,0.00,0,weatherlink.com 1.10,2013-01-17 02:03:00,
2013-01-16 19:18:00,40.5,9.0,30.47,SW,221,0.0,0.0,27,0.00,,,0.00,0,weatherlink.com 1.10,2013-01-17 02:18:00,
2013-01-16 19:33:00,40.2,9.0,30.47,SW,221,0.0,0.0,27,0.00,,,0.00,0,weatherlink.com 1.10,2013-01-17 02:33:00,
2013-01-16 19:48:00,39.7,8.0,30.48,SW,221,0.0,0.0,27,0.00,,,0.00,0,weatherlink.com 1.10,2013-01-17 02:48:00,
2013-01-16 20:03:00,39.2,8.0,30.48,SW,221,0.0,0.0,27,0.00,,,0.00,0,weatherlink.com 1.10,2013-01-17 03:03:00,
2013-01-16 20:18:00,38.7,8.0,30.48,SW,221,0.0,0.0,28,0.00,,,0.00,0,weatherlink.com 1.10,2013-01-17 03:18:00,
2013-01-16 20:33:00,38.4,8.0,30.48,SW,221,0.0,0.0,28,0.00,,,0.00,0,weatherlink.com 1.10,2013-01-17 03:33:00,
2013-01-16 20:48:00,38.2,8.0,30.48,SW,221,0.0,0.0,28,0.00,,,0.00,0,weatherlink.com 1.10,2013-01-17 03:48:00,
2013-01-16 21:03:00,37.9,8.0,30.48,SW,221,0.0,0.0,29,0.00,,,0.00,0,weatherlink.com 1.10,2013-01-17 04:03:00,
2013-01-16 21:18:00,37.1,8.0,30.49,SW,221,0.0,0.0,30,0.00,,,0.00,0,weatherlink.com 1.10,2013-01-17 04:18:00,
2013-01-16 21:33:00,36.6,8.0,30.48,SW,221,0.0,0.0,31,0.00,,,0.00,0,weatherlink.com 1.10,2013-01-17 04:33:00,
2013-01-16 21:48:00,36.1,9.0,30.49,SW,221,0.0,0.0,32,0.00,,,0.00,0,weatherlink.com 1.10,2013-01-17 04:48:00,
2013-01-16 22:04:00,35.8,9.0,30.49,SW,221,0.0,0.0,33,0.00,,,0.00,0,weatherlink.com 1.10,2013-01-17 05:04:00,
2013-01-16 22:19:00,35.4,10.0,30.49,SW,221,0.0,0.0,35,0.00,,,0.00,0,weatherlink.com 1.10,2013-01-17 05:19:00,
2013-01-16 22:34:00,35.2,9.0,30.49,SW,221,0.0,1.0,34,0.00,,,0.00,0,weatherlink.com 1.10,2013-01-17 05:34:00,
2013-01-16 22:49:00,34.5,8.0,30.50,SW,221,0.0,0.0,33,0.00,,,0.00,0,weatherlink.com 1.10,2013-01-17 05:49:00,
2013-01-16 23:04:00,34.0,8.0,30.50,SW,221,0.0,0.0,33,0.00,,,0.00,0,weatherlink.com 1.10,2013-01-17 06:04:00,
2013-01-16 23:19:00,33.5,7.0,30.50,SW,221,0.0,0.0,33,0.00,,,0.00,0,weatherlink.com 1.10,2013-01-17 06:19:00,
2013-01-16 23:34:00,33.2,7.0,30.50,SW,221,0.0,0.0,33,0.00,,,0.00,0,weatherlink.com 1.10,2013-01-17 06:34:00,
2013-01-16 23:49:00,33.2,7.0,30.50,SW,221,0.0,0.0,33,0.00,,,0.00,0,weatherlink.com 1.10,2013-01-17 06:49:00,